Appleton, Wisconsin
Current Conditions -  °F | °C
As of 6:45 PM on Friday 24 Oct 2014 (Local Time) from KATW Reporting Station
Broken Clouds Broken Clouds  
Wind Chill: 11°   Ceiling: 6500
Heat Index: 11°   Visibility: 7mi
Dew Point:   Wind: 3mph
Humidity: 88%   Direction: NA
Pressure: 29.9"   Gusts: NA
Location:  44.26°N, 88.42°W
Report Text: KATW 242345Z VRB03KT 7SM BKN065 11/09 A2990
Loading
Personal Weather Stations






























Interactive Weather Map New forecast layout! Learn more

10-Day Weather Forecast

Advertisements
Track Severe Weather on mobile